createdAt,value
2023-02-22T00:02:12.731Z,3.62
2023-02-22T00:04:42.518Z,3.57
2023-02-22T00:07:11.010Z,3.52
2023-02-22T00:09:39.499Z,3.49
2023-02-22T00:12:09.573Z,3.45
2023-02-22T00:14:39.780Z,3.42
2023-02-22T00:17:08.620Z,3.38
2023-02-22T00:19:37.938Z,3.34
2023-02-22T00:22:06.410Z,3.30
2023-02-22T00:24:35.551Z,3.26
2023-02-22T00:27:04.117Z,3.23
2023-02-22T00:29:34.193Z,3.20
2023-02-22T00:32:02.829Z,3.17
2023-02-22T00:34:31.334Z,3.16
2023-02-22T00:37:03.071Z,3.14
2023-02-22T00:39:31.549Z,3.11
2023-02-22T00:41:59.931Z,3.08
2023-02-22T00:44:28.503Z,3.05
2023-02-22T00:46:57.059Z,3.03
2023-02-22T00:49:25.866Z,3.01
2023-02-22T00:51:54.576Z,2.99
2023-02-22T00:54:23.064Z,2.98
2023-02-22T00:56:51.741Z,2.96
2023-02-22T00:59:20.916Z,2.94
2023-02-22T01:01:49.449Z,2.92
2023-02-22T01:04:18.251Z,2.88
2023-02-22T01:06:46.775Z,2.86
2023-02-22T01:09:18.257Z,2.84
2023-02-22T01:11:47.004Z,2.80
2023-02-22T01:14:15.581Z,2.78
2023-02-22T01:16:44.218Z,2.76
2023-02-22T01:19:13.179Z,2.74
2023-02-22T01:21:41.892Z,2.72
2023-02-22T01:24:11.147Z,2.71
2023-02-22T01:26:41.721Z,2.71
2023-02-22T01:29:14.919Z,2.72
2023-02-22T01:31:53.967Z,2.72
2023-02-22T01:34:25.531Z,2.73
2023-02-22T01:36:53.988Z,2.75
2023-02-22T01:39:24.101Z,2.76
2023-02-22T01:41:53.298Z,2.78
2023-02-22T01:44:32.780Z,2.80
2023-02-22T01:47:05.276Z,2.81
2023-02-22T01:49:38.549Z,2.83
2023-02-22T01:52:12.408Z,2.83
2023-02-22T01:54:44.264Z,2.82
2023-02-22T01:57:18.726Z,2.81
2023-02-22T01:59:50.573Z,2.80
2023-02-22T02:02:21.031Z,2.76
2023-02-22T02:04:56.061Z,2.76
2023-02-22T02:07:29.484Z,2.73
2023-02-22T02:10:04.037Z,2.73
2023-02-22T02:12:35.578Z,2.71
2023-02-22T02:15:21.905Z,2.69
2023-02-22T02:17:52.304Z,2.65
2023-02-22T02:20:26.903Z,2.63
2023-02-22T02:23:00.020Z,2.61
2023-02-22T02:26:12.021Z,2.58
2023-02-22T02:29:05.870Z,2.53
2023-02-22T02:32:08.242Z,2.50
2023-02-22T02:34:43.677Z,2.45
2023-02-22T02:37:19.508Z,2.42
2023-02-22T02:39:56.482Z,2.38
2023-02-22T02:42:29.219Z,2.37
2023-02-22T02:45:04.948Z,2.36
2023-02-22T02:47:37.590Z,2.36
2023-02-22T02:50:09.167Z,2.35
2023-02-22T02:52:40.786Z,2.36
2023-02-22T02:55:11.255Z,2.36
2023-02-22T02:57:39.960Z,2.37
2023-02-22T03:00:21.872Z,2.37
2023-02-22T03:03:05.461Z,2.38
2023-02-22T03:05:54.785Z,2.37
2023-02-22T03:08:31.037Z,2.36
2023-02-22T03:11:14.498Z,2.36
2023-02-22T03:13:51.737Z,2.35
2023-02-22T03:16:26.564Z,2.33
2023-02-22T03:18:58.835Z,2.33
2023-02-22T03:21:33.808Z,2.33
2023-02-22T03:24:12.949Z,2.35
2023-02-22T03:26:47.032Z,2.34
2023-02-22T03:29:15.779Z,2.33
2023-02-22T03:31:49.543Z,2.33
2023-02-22T03:34:32.941Z,2.33
2023-02-22T03:37:06.878Z,2.32
2023-02-22T03:39:38.632Z,2.32
2023-02-22T03:42:11.496Z,2.28
2023-02-22T03:44:43.540Z,2.25
2023-02-22T03:47:14.934Z,2.22
2023-02-22T03:49:47.733Z,2.20
2023-02-22T03:52:16.884Z,2.19
2023-02-22T03:54:50.283Z,2.17
2023-02-22T03:57:24.460Z,2.17
2023-02-22T03:59:53.828Z,2.17
2023-02-22T04:02:23.212Z,2.19
2023-02-22T04:04:52.041Z,2.21
2023-02-22T04:07:21.216Z,2.22
2023-02-22T04:09:49.933Z,2.24
2023-02-22T04:12:34.545Z,2.23
2023-02-22T04:15:07.978Z,2.18
2023-02-22T04:17:38.638Z,2.15
2023-02-22T04:20:09.510Z,2.11
2023-02-22T04:22:38.293Z,2.09
2023-02-22T04:25:08.009Z,2.09
2023-02-22T04:27:39.394Z,2.09
2023-02-22T04:30:10.656Z,2.09
2023-02-22T04:32:41.385Z,2.08
2023-02-22T04:35:10.388Z,2.08
2023-02-22T04:37:43.427Z,2.08
2023-02-22T04:40:12.529Z,2.08
2023-02-22T04:42:43.683Z,2.09
2023-02-22T04:45:12.760Z,2.07
2023-02-22T04:47:41.308Z,2.04
2023-02-22T04:50:12.595Z,2.03
2023-02-22T04:52:41.590Z,2.01
2023-02-22T04:55:11.536Z,1.96
2023-02-22T04:57:40.318Z,1.93
2023-02-22T05:00:11.336Z,1.88
2023-02-22T05:02:40.452Z,1.84
2023-02-22T05:05:09.316Z,1.82
2023-02-22T05:07:37.767Z,1.78
2023-02-22T05:10:07.208Z,1.75
2023-02-22T05:12:36.989Z,1.72
2023-02-22T05:15:07.749Z,1.70
2023-02-22T05:17:38.686Z,1.69
2023-02-22T05:20:10.254Z,1.67
2023-02-22T05:22:39.168Z,1.63
2023-02-22T05:25:09.381Z,1.60
2023-02-22T05:27:38.109Z,1.56
2023-02-22T05:30:08.876Z,1.52
2023-02-22T05:32:38.754Z,1.48
2023-02-22T05:35:08.163Z,1.44
2023-02-22T05:37:39.154Z,1.42
2023-02-22T05:40:09.646Z,1.42
2023-02-22T05:42:38.098Z,1.43
2023-02-22T05:45:13.707Z,1.43
2023-02-22T05:47:42.345Z,1.45
2023-02-22T05:50:11.337Z,1.47
2023-02-22T05:52:40.090Z,1.49
2023-02-22T05:55:10.272Z,1.50
2023-02-22T05:57:39.063Z,1.52
2023-02-22T06:00:11.516Z,1.56
2023-02-22T06:02:40.718Z,1.59
2023-02-22T06:05:09.913Z,1.61
2023-02-22T06:07:38.801Z,1.60
2023-02-22T06:10:09.685Z,1.58
2023-02-22T06:12:38.169Z,1.58
2023-02-22T06:15:07.929Z,1.56
2023-02-22T06:17:36.899Z,1.56
2023-02-22T06:20:07.495Z,1.54
2023-02-22T06:22:37.310Z,1.55
2023-02-22T06:25:07.246Z,1.56
2023-02-22T06:27:37.320Z,1.58
2023-02-22T06:30:13.262Z,1.63
2023-02-22T06:32:42.300Z,1.67
2023-02-22T06:35:10.693Z,1.68
2023-02-22T06:37:40.259Z,1.68
2023-02-22T06:40:10.803Z,1.67
2023-02-22T06:42:39.733Z,1.64
2023-02-22T06:45:09.782Z,1.63
2023-02-22T06:47:40.495Z,1.64
2023-02-22T06:50:19.316Z,1.64
2023-02-22T06:52:50.140Z,1.67
2023-02-22T06:55:24.395Z,1.71
2023-02-22T06:57:53.294Z,1.73
2023-02-22T07:00:24.323Z,1.76
2023-02-22T07:02:53.481Z,1.80
2023-02-22T07:05:24.339Z,1.84
2023-02-22T07:07:55.325Z,1.86
2023-02-22T07:10:26.817Z,1.85
2023-02-22T07:12:55.401Z,1.86
2023-02-22T07:15:25.349Z,1.88
2023-02-22T07:17:54.050Z,1.90
2023-02-22T07:20:24.568Z,1.93
2023-02-22T07:22:53.274Z,1.95
2023-02-22T07:25:23.513Z,1.95
2023-02-22T07:27:52.451Z,1.96
2023-02-22T07:30:24.789Z,1.96
2023-02-22T07:32:54.279Z,2.00
2023-02-22T07:35:36.470Z,2.04
2023-02-22T07:38:07.406Z,2.09
2023-02-22T07:40:40.995Z,2.09
2023-02-22T07:43:16.107Z,2.12
2023-02-22T07:45:47.194Z,2.16
2023-02-22T07:48:17.739Z,2.18
2023-02-22T07:50:46.498Z,2.22
2023-02-22T07:53:17.947Z,2.24
2023-02-22T07:55:50.497Z,2.27
2023-02-22T07:58:21.952Z,2.30
2023-02-22T08:00:50.377Z,2.33
2023-02-22T08:03:21.199Z,2.36
2023-02-22T08:05:52.411Z,2.37
2023-02-22T08:08:21.207Z,2.37
2023-02-22T08:10:50.831Z,2.38
2023-02-22T08:13:19.965Z,2.41
2023-02-22T08:15:50.444Z,2.44
2023-02-22T08:18:19.898Z,2.46
2023-02-22T08:20:50.683Z,2.51
2023-02-22T08:23:21.956Z,2.56
2023-02-22T08:25:50.489Z,2.58
2023-02-22T08:28:23.583Z,2.58
2023-02-22T08:30:56.492Z,2.60
2023-02-22T08:33:26.375Z,2.62
2023-02-22T08:35:56.328Z,2.65
2023-02-22T08:38:29.056Z,2.71
2023-02-22T08:40:57.939Z,2.76
2023-02-22T08:43:27.855Z,2.82
2023-02-22T08:45:57.817Z,2.88
2023-02-22T08:48:34.906Z,2.94
2023-02-22T08:51:07.904Z,3.00
2023-02-22T08:53:36.522Z,3.06
2023-02-22T08:56:07.210Z,3.11
2023-02-22T08:58:35.791Z,3.15
2023-02-22T09:01:07.543Z,3.16
2023-02-22T09:03:42.776Z,3.19
2023-02-22T09:06:12.578Z,3.18
2023-02-22T09:08:41.650Z,3.13
2023-02-22T09:11:10.039Z,3.07
2023-02-22T09:13:38.811Z,3.04
2023-02-22T09:16:08.308Z,3.02
2023-02-22T09:18:44.088Z,3.04
2023-02-22T09:21:17.767Z,3.05
2023-02-22T09:23:54.214Z,3.08
2023-02-22T09:26:24.335Z,3.10
2023-02-22T09:28:53.433Z,3.12
2023-02-22T09:31:23.742Z,3.13
2023-02-22T09:33:53.083Z,3.12
2023-02-22T09:36:24.585Z,3.09
2023-02-22T09:38:58.441Z,3.06
2023-02-22T09:41:34.003Z,3.06
2023-02-22T09:44:18.006Z,3.05
2023-02-22T09:46:58.718Z,3.04
2023-02-22T09:49:32.180Z,3.02
2023-02-22T09:52:01.455Z,3.01
2023-02-22T09:54:34.102Z,3.00
2023-02-22T09:57:05.605Z,2.99
2023-02-22T09:59:39.426Z,3.00
2023-02-22T10:02:19.977Z,2.99
2023-02-22T10:04:52.799Z,2.94
2023-02-22T10:07:25.549Z,2.94
2023-02-22T10:09:55.933Z,2.97
2023-02-22T10:12:36.541Z,3.00
2023-02-22T10:15:46.909Z,2.98
2023-02-22T10:18:59.417Z,2.94
2023-02-22T10:21:45.618Z,2.80
2023-02-22T10:24:26.417Z,2.57
2023-02-22T10:26:56.464Z,2.39
2023-02-22T10:29:29.919Z,2.29
2023-02-22T10:32:00.121Z,2.25
2023-02-22T10:34:32.789Z,2.20
2023-02-22T10:37:13.856Z,2.17
2023-02-22T10:39:46.102Z,2.15
2023-02-22T10:42:30.915Z,2.15
2023-02-22T10:45:00.487Z,2.19
2023-02-22T10:47:32.458Z,2.18
2023-02-22T10:50:01.444Z,2.15
2023-02-22T10:52:34.171Z,2.13
2023-02-22T10:55:15.602Z,2.09
2023-02-22T10:58:01.093Z,2.05
2023-02-22T11:00:48.329Z,2.00
2023-02-22T11:03:26.203Z,1.99
2023-02-22T11:05:55.464Z,2.00
2023-02-22T11:08:30.292Z,2.01
2023-02-22T11:11:02.876Z,1.98
2023-02-22T11:13:39.562Z,1.93
2023-02-22T11:16:36.021Z,1.87
2023-02-22T11:19:17.582Z,1.84
2023-02-22T11:22:26.697Z,1.81
2023-02-22T11:25:07.027Z,1.76
2023-02-22T11:27:39.420Z,1.77
2023-02-22T11:30:26.160Z,1.80
2023-02-22T11:32:58.968Z,1.81
2023-02-22T11:35:57.857Z,1.84
2023-02-22T11:38:28.618Z,1.87
2023-02-22T11:41:37.557Z,1.89
2023-02-22T11:44:23.615Z,1.92
2023-02-22T11:47:02.988Z,1.98
2023-02-22T11:49:39.822Z,2.00
2023-02-22T11:52:25.051Z,2.00
2023-02-22T11:55:41.287Z,1.98
2023-02-22T11:58:33.840Z,1.99
2023-02-22T12:01:11.687Z,2.03
2023-02-22T12:04:02.531Z,2.11
2023-02-22T12:06:44.455Z,2.22
2023-02-22T12:09:21.928Z,2.29
2023-02-22T12:12:04.146Z,2.37
2023-02-22T12:14:41.370Z,2.43
2023-02-22T12:17:22.905Z,2.45
2023-02-22T12:19:52.983Z,2.46
2023-02-22T12:22:25.192Z,2.48
2023-02-22T12:25:09.484Z,2.50
2023-02-22T12:27:45.717Z,2.51
2023-02-22T12:30:24.421Z,2.53
2023-02-22T12:32:58.454Z,2.59
2023-02-22T12:35:28.637Z,2.67
2023-02-22T12:38:05.119Z,2.73
2023-02-22T12:40:37.737Z,2.78
2023-02-22T12:43:12.925Z,2.77
2023-02-22T12:45:45.121Z,2.75
2023-02-22T12:48:33.287Z,2.74
2023-02-22T12:51:08.209Z,2.76
2023-02-22T12:53:40.137Z,2.73
2023-02-22T12:56:19.141Z,2.79
2023-02-22T12:58:54.199Z,2.83
2023-02-22T13:01:25.472Z,2.84
2023-02-22T13:04:03.805Z,2.80
2023-02-22T13:06:56.375Z,2.83
2023-02-22T13:09:59.050Z,2.89
2023-02-22T13:12:35.919Z,2.94
2023-02-22T13:15:16.470Z,2.95
2023-02-22T13:18:01.274Z,2.93
2023-02-22T13:20:41.105Z,2.93
2023-02-22T13:23:20.742Z,2.94
2023-02-22T13:26:02.184Z,2.91
2023-02-22T13:28:37.052Z,2.88
2023-02-22T13:31:25.181Z,2.82
2023-02-22T13:34:12.518Z,2.77
2023-02-22T13:36:53.960Z,2.75
2023-02-22T13:39:40.899Z,2.72
2023-02-22T13:42:26.360Z,2.70
2023-02-22T13:45:36.866Z,2.66
2023-02-22T13:48:38.873Z,2.57
2023-02-22T13:51:14.678Z,2.48
2023-02-22T13:53:57.240Z,2.48
2023-02-22T13:56:26.237Z,2.49
2023-02-22T13:58:58.605Z,2.44
2023-02-22T14:01:46.364Z,2.41
2023-02-22T14:04:39.973Z,2.40
2023-02-22T14:07:56.519Z,2.39
2023-02-22T14:10:46.719Z,2.39
2023-02-22T14:13:16.545Z,2.37
2023-02-22T14:16:24.097Z,2.33
2023-02-22T14:19:05.820Z,2.31
2023-02-22T14:21:35.340Z,2.31
2023-02-22T14:24:13.069Z,2.26
2023-02-22T14:26:44.373Z,2.13
2023-02-22T14:29:17.868Z,2.04
2023-02-22T14:32:02.370Z,2.00
2023-02-22T14:34:53.310Z,2.00
2023-02-22T14:37:25.374Z,1.98
2023-02-22T14:40:01.631Z,1.96
2023-02-22T14:42:33.766Z,1.96
2023-02-22T14:45:11.664Z,1.91
2023-02-22T14:47:48.852Z,1.87
2023-02-22T14:50:22.609Z,1.82
2023-02-22T14:52:59.991Z,1.76
2023-02-22T14:55:31.377Z,1.70
2023-02-22T14:58:05.578Z,1.62
2023-02-22T15:00:41.323Z,1.58
2023-02-22T15:03:28.825Z,1.53
2023-02-22T15:06:21.806Z,1.50
2023-02-22T15:09:06.635Z,1.49
2023-02-22T15:11:35.217Z,1.50
2023-02-22T15:14:25.237Z,1.48
2023-02-22T15:16:57.721Z,1.46
2023-02-22T15:19:28.356Z,1.47
2023-02-22T15:22:01.128Z,1.47
2023-02-22T15:24:32.949Z,1.46
2023-02-22T15:27:06.383Z,1.46
2023-02-22T15:29:38.510Z,1.44
2023-02-22T15:32:20.558Z,1.42
2023-02-22T15:34:49.159Z,1.41
2023-02-22T15:37:24.687Z,1.41
2023-02-22T15:39:58.795Z,1.42
2023-02-22T15:42:29.997Z,1.42
2023-02-22T15:44:58.661Z,1.42
2023-02-22T15:47:32.880Z,1.41
2023-02-22T15:50:22.726Z,1.43
2023-02-22T15:52:59.881Z,1.43
2023-02-22T15:55:30.762Z,1.41
2023-02-22T15:58:02.378Z,1.40
2023-02-22T16:00:36.267Z,1.42
2023-02-22T16:03:04.345Z,1.43
2023-02-22T16:05:39.661Z,1.42
2023-02-22T16:08:15.747Z,1.41
2023-02-22T16:10:53.730Z,1.42
2023-02-22T16:13:31.449Z,1.42
2023-02-22T16:16:03.189Z,1.39
2023-02-22T16:18:35.663Z,1.38
2023-02-22T16:21:06.910Z,1.38
2023-02-22T16:23:45.621Z,1.38
2023-02-22T16:26:28.508Z,1.39
2023-02-22T16:28:59.700Z,1.39
2023-02-22T16:31:33.997Z,1.40
2023-02-22T16:34:04.846Z,1.41
2023-02-22T16:36:41.867Z,1.41
2023-02-22T16:39:19.088Z,1.39
2023-02-22T16:41:47.601Z,1.37
2023-02-22T16:44:16.823Z,1.33
2023-02-22T16:46:46.515Z,1.32
2023-02-22T16:49:15.065Z,1.32
2023-02-22T16:51:46.921Z,1.33
2023-02-22T16:54:20.947Z,1.35
2023-02-22T16:56:48.705Z,1.35
2023-02-22T16:59:17.716Z,1.34
2023-02-22T17:01:46.564Z,1.34
2023-02-22T17:04:17.553Z,1.34
2023-02-22T17:06:46.111Z,1.34
2023-02-22T17:09:15.283Z,1.35
2023-02-22T17:11:44.304Z,1.34
2023-02-22T17:14:21.674Z,1.31
2023-02-22T17:16:52.890Z,1.30
2023-02-22T17:19:27.059Z,1.29
2023-02-22T17:21:56.335Z,1.28
2023-02-22T17:24:28.528Z,1.29
2023-02-22T17:26:59.915Z,1.30
2023-02-22T17:29:31.438Z,1.31
2023-02-22T17:32:03.832Z,1.31
2023-02-22T17:34:42.897Z,1.31
2023-02-22T17:37:12.658Z,1.31
2023-02-22T17:39:44.208Z,1.32
2023-02-22T17:42:18.837Z,1.33
2023-02-22T17:44:51.551Z,1.33
2023-02-22T17:47:24.367Z,1.34
2023-02-22T17:50:02.112Z,1.34
2023-02-22T17:52:30.783Z,1.34
2023-02-22T17:55:00.302Z,1.32
2023-02-22T17:57:29.698Z,1.31
2023-02-22T18:00:14.250Z,1.30
2023-02-22T18:02:49.713Z,1.29
2023-02-22T18:05:19.423Z,1.28
2023-02-22T18:07:51.168Z,1.26
2023-02-22T18:10:20.679Z,1.26
2023-02-22T18:12:57.386Z,1.23
2023-02-22T18:15:27.731Z,1.20
2023-02-22T18:17:56.392Z,1.18
2023-02-22T18:20:30.714Z,1.19
2023-02-22T18:22:59.697Z,1.18
2023-02-22T18:25:28.101Z,1.15
2023-02-22T18:27:56.463Z,1.15
2023-02-22T18:30:24.864Z,1.15
2023-02-22T18:32:53.366Z,1.17
2023-02-22T18:35:21.716Z,1.17
2023-02-22T18:37:50.093Z,1.16
2023-02-22T18:40:19.062Z,1.14
2023-02-22T18:42:47.552Z,1.13
2023-02-22T18:45:17.506Z,1.09
2023-02-22T18:47:45.846Z,1.05
2023-02-22T18:50:17.090Z,1.04
2023-02-22T18:52:45.728Z,1.01
2023-02-22T18:55:15.924Z,0.99
2023-02-22T18:57:45.287Z,0.97
2023-02-22T19:00:18.252Z,0.97
2023-02-22T19:02:47.013Z,0.97
2023-02-22T19:05:24.666Z,0.96
2023-02-22T19:07:57.349Z,0.94
2023-02-22T19:10:27.440Z,0.93
2023-02-22T19:12:58.371Z,0.93
2023-02-22T19:15:27.468Z,0.94
2023-02-22T19:17:56.044Z,0.95
2023-02-22T19:20:32.502Z,0.95
2023-02-22T19:23:02.373Z,0.93
2023-02-22T19:25:34.356Z,0.90
2023-02-22T19:28:05.723Z,0.90
2023-02-22T19:30:49.109Z,0.89
2023-02-22T19:33:18.411Z,0.88
2023-02-22T19:35:52.447Z,0.86
2023-02-22T19:42:00.665Z,0.81
2023-02-22T19:44:39.910Z,0.82
2023-02-22T19:47:13.086Z,0.78
2023-02-22T19:52:25.174Z,0.75
2023-02-22T19:54:53.737Z,0.75
2023-02-22T19:57:26.697Z,0.75
2023-02-22T19:59:55.752Z,0.76
2023-02-22T20:02:26.964Z,0.78
2023-02-22T20:04:55.732Z,0.79
2023-02-22T20:07:24.445Z,0.78
2023-02-22T20:09:53.301Z,0.78
2023-02-22T20:12:22.078Z,0.76
2023-02-22T20:14:51.702Z,0.75
2023-02-22T20:17:20.779Z,0.74
2023-02-22T20:19:49.927Z,0.73
2023-02-22T20:22:18.597Z,0.72
2023-02-22T20:24:47.877Z,0.72
2023-02-22T20:27:17.373Z,0.70
2023-02-22T20:29:49.083Z,0.68
2023-02-22T20:32:20.272Z,0.68
2023-02-22T20:34:50.927Z,0.66
2023-02-22T20:37:30.801Z,0.65
2023-02-22T20:40:01.441Z,0.63
2023-02-22T20:42:34.316Z,0.62
2023-02-22T20:45:05.597Z,0.63
2023-02-22T20:47:35.372Z,0.64
2023-02-22T20:50:09.581Z,0.64
2023-02-22T20:52:39.457Z,0.62
2023-02-22T20:55:13.881Z,0.59
2023-02-22T20:57:43.557Z,0.56
2023-02-22T21:00:17.563Z,0.54
2023-02-22T21:02:47.337Z,0.52
2023-02-22T21:05:16.224Z,0.49
2023-02-22T21:07:45.073Z,0.45
2023-02-22T21:10:15.300Z,0.45
2023-02-22T21:12:47.614Z,0.45
2023-02-22T21:15:16.547Z,0.45
2023-02-22T21:17:47.268Z,0.46
2023-02-22T21:20:21.358Z,0.46
2023-02-22T21:22:52.502Z,0.46
2023-02-22T21:25:21.176Z,0.46
2023-02-22T21:27:51.456Z,0.45
2023-02-22T21:30:20.305Z,0.43
2023-02-22T21:32:53.299Z,0.41
2023-02-22T21:35:22.636Z,0.40
2023-02-22T21:37:52.886Z,0.39
2023-02-22T21:40:23.000Z,0.39
2023-02-22T21:42:55.108Z,0.39
2023-02-22T21:45:23.628Z,0.38
2023-02-22T21:47:58.824Z,0.37
2023-02-22T21:50:30.109Z,0.37
2023-02-22T21:52:59.313Z,0.35
2023-02-22T21:55:29.174Z,0.33
2023-02-22T21:57:57.767Z,0.30
2023-02-22T22:00:28.831Z,0.26
2023-02-22T22:02:58.995Z,0.24
2023-02-22T22:05:31.858Z,0.23
2023-02-22T22:08:00.506Z,0.21
2023-02-22T22:10:32.390Z,0.21
2023-02-22T22:13:01.000Z,0.20
2023-02-22T22:15:36.211Z,0.20
2023-02-22T22:18:06.004Z,0.20
2023-02-22T22:20:37.663Z,0.18
2023-02-22T22:23:07.886Z,0.18
2023-02-22T22:25:37.805Z,0.16
2023-02-22T22:28:08.711Z,0.13
2023-02-22T22:30:39.663Z,0.11
2023-02-22T22:33:11.634Z,0.11
2023-02-22T22:35:41.486Z,0.12
2023-02-22T22:38:11.224Z,0.10
2023-02-22T22:40:52.397Z,0.07
2023-02-22T22:43:23.395Z,0.05
2023-02-22T22:45:54.369Z,0.01
2023-02-22T22:48:24.744Z,-0.02
2023-02-22T22:51:02.013Z,-0.03
2023-02-22T22:53:34.481Z,-0.04
2023-02-22T22:56:04.751Z,-0.07
2023-02-22T22:58:36.187Z,-0.11
2023-02-22T23:01:19.876Z,-0.14
2023-02-22T23:04:04.694Z,-0.16
2023-02-22T23:06:56.971Z,-0.19
2023-02-22T23:09:34.268Z,-0.21
2023-02-22T23:12:09.372Z,-0.21
2023-02-22T23:14:43.482Z,-0.19
2023-02-22T23:17:14.826Z,-0.21
2023-02-22T23:19:45.785Z,-0.23
2023-02-22T23:22:17.126Z,-0.26
2023-02-22T23:24:45.704Z,-0.29
2023-02-22T23:27:14.412Z,-0.33
2023-02-22T23:29:45.851Z,-0.35
2023-02-22T23:32:14.621Z,-0.37
2023-02-22T23:34:43.629Z,-0.39
2023-02-22T23:37:13.525Z,-0.40
2023-02-22T23:39:42.170Z,-0.41
2023-02-22T23:42:10.600Z,-0.42
2023-02-22T23:44:41.330Z,-0.44
2023-02-22T23:47:09.824Z,-0.45
2023-02-22T23:49:38.535Z,-0.49
2023-02-22T23:52:08.780Z,-0.51
2023-02-22T23:54:43.213Z,-0.54
2023-02-22T23:57:12.004Z,-0.56
2023-02-22T23:59:40.687Z,-0.58
